createdAt,value
2023-03-06T00:01:54.148Z,73.08
2023-03-06T00:04:20.803Z,72.70
2023-03-06T00:06:47.307Z,74.12
2023-03-06T00:09:13.882Z,75.05
2023-03-06T00:11:40.392Z,74.12
2023-03-06T00:14:06.892Z,73.15
2023-03-06T00:16:33.565Z,74.90
2023-03-06T00:19:00.125Z,77.38
2023-03-06T00:21:26.663Z,76.72
2023-03-06T00:23:53.310Z,77.37
2023-03-06T00:26:19.789Z,76.61
2023-03-06T00:28:46.355Z,76.33
2023-03-06T00:31:13.287Z,75.96
2023-03-06T00:33:40.992Z,77.42
2023-03-06T00:36:08.471Z,78.58
2023-03-06T00:38:35.335Z,77.67
2023-03-06T00:41:12.184Z,77.44
2023-03-06T00:43:39.037Z,76.19
2023-03-06T00:46:06.092Z,75.54
2023-03-06T00:48:33.953Z,74.72
2023-03-06T00:51:00.878Z,74.93
2023-03-06T00:53:27.695Z,73.75
2023-03-06T00:55:56.525Z,75.74
2023-03-06T00:58:23.427Z,77.78
2023-03-06T01:00:50.194Z,76.12
2023-03-06T01:03:16.697Z,76.01
2023-03-06T01:05:43.516Z,75.69
2023-03-06T01:08:10.048Z,75.99
2023-03-06T01:10:40.793Z,76.36
2023-03-06T01:13:07.335Z,75.94
2023-03-06T01:15:33.923Z,75.31
2023-03-06T01:18:00.826Z,75.11
2023-03-06T01:20:27.799Z,76.14
2023-03-06T01:22:54.331Z,76.83
2023-03-06T01:25:21.099Z,76.90
2023-03-06T01:27:47.651Z,77.72
2023-03-06T01:30:14.273Z,77.76
2023-03-06T01:32:40.852Z,78.13
2023-03-06T01:35:08.102Z,77.85
2023-03-06T01:37:36.467Z,77.75
2023-03-06T01:40:03.332Z,77.31
2023-03-06T01:42:32.024Z,77.50
2023-03-06T01:45:07.321Z,78.85
2023-03-06T01:47:33.973Z,77.66
2023-03-06T01:50:01.538Z,77.00
2023-03-06T01:52:33.268Z,76.98
2023-03-06T01:55:04.353Z,77.64
2023-03-06T01:57:34.316Z,77.40
2023-03-06T02:00:23.241Z,77.42
2023-03-06T02:03:01.309Z,76.74
2023-03-06T02:05:27.842Z,75.87
2023-03-06T02:07:54.610Z,76.40
2023-03-06T02:10:21.234Z,75.08
2023-03-06T02:12:48.366Z,74.90
2023-03-06T02:15:18.333Z,74.57
2023-03-06T02:17:46.106Z,75.09
2023-03-06T02:20:36.320Z,76.41
2023-03-06T02:23:20.984Z,76.90
2023-03-06T02:25:49.917Z,77.26
2023-03-06T02:28:19.332Z,77.47
2023-03-06T02:30:48.263Z,77.00
2023-03-06T02:33:17.177Z,78.57
2023-03-06T02:35:47.346Z,77.96
2023-03-06T02:38:15.506Z,77.61
2023-03-06T02:40:44.404Z,76.93
2023-03-06T02:43:11.542Z,77.48
2023-03-06T02:45:41.663Z,77.45
2023-03-06T02:48:08.187Z,77.56
2023-03-06T02:50:34.727Z,78.27
2023-03-06T02:53:01.280Z,77.10
2023-03-06T02:55:27.851Z,77.39
2023-03-06T02:57:54.400Z,77.75
2023-03-06T03:00:21.028Z,78.22
2023-03-06T03:02:47.691Z,77.73
2023-03-06T03:05:14.223Z,77.51
2023-03-06T03:07:40.778Z,77.29
2023-03-06T03:10:07.840Z,77.17
2023-03-06T03:12:34.327Z,78.42
2023-03-06T03:15:01.470Z,77.68
2023-03-06T03:17:28.540Z,78.56
2023-03-06T03:19:55.115Z,78.82
2023-03-06T03:22:21.652Z,78.01
2023-03-06T03:24:48.235Z,77.97
2023-03-06T03:27:15.236Z,78.28
2023-03-06T03:29:41.813Z,77.31
2023-03-06T03:32:08.592Z,77.30
2023-03-06T03:34:35.268Z,77.96
2023-03-06T03:37:01.846Z,77.92
2023-03-06T03:39:28.389Z,77.68
2023-03-06T03:41:54.903Z,77.25
2023-03-06T03:44:21.434Z,78.12
2023-03-06T03:46:48.038Z,78.61
2023-03-06T03:49:14.912Z,78.90
2023-03-06T03:51:41.450Z,79.02
2023-03-06T03:54:07.939Z,78.30
2023-03-06T03:56:34.478Z,77.70
2023-03-06T03:59:01.242Z,78.68
2023-03-06T04:01:27.953Z,78.34
2023-03-06T04:03:54.516Z,78.69
2023-03-06T04:06:21.110Z,78.23
2023-03-06T04:08:47.711Z,78.53
2023-03-06T04:11:14.211Z,77.93
2023-03-06T04:13:40.747Z,77.90
2023-03-06T04:16:07.652Z,77.84
2023-03-06T04:18:34.158Z,77.53
2023-03-06T04:21:00.828Z,77.66
2023-03-06T04:23:27.330Z,76.39
2023-03-06T04:25:54.057Z,76.91
2023-03-06T04:28:20.848Z,76.62
2023-03-06T04:30:47.386Z,76.58
2023-03-06T04:33:13.927Z,76.71
2023-03-06T04:35:40.564Z,77.28
2023-03-06T04:38:07.404Z,77.33
2023-03-06T04:40:36.038Z,77.50
2023-03-06T04:43:03.720Z,76.77
2023-03-06T04:45:31.439Z,76.81
2023-03-06T04:47:58.617Z,77.35
2023-03-06T04:50:27.463Z,77.16
2023-03-06T04:52:54.548Z,76.93
2023-03-06T04:55:21.167Z,77.64
2023-03-06T04:57:47.992Z,78.36
2023-03-06T05:00:21.218Z,78.50
2023-03-06T05:02:48.788Z,77.97
2023-03-06T05:05:16.102Z,77.68
2023-03-06T05:07:43.925Z,77.78
2023-03-06T05:10:12.746Z,77.06
2023-03-06T05:12:39.316Z,76.84
2023-03-06T05:15:07.079Z,77.20
2023-03-06T05:17:34.163Z,76.76
2023-03-06T05:20:00.698Z,78.14
2023-03-06T05:22:27.330Z,78.11
2023-03-06T05:24:53.875Z,78.45
2023-03-06T05:27:20.445Z,78.08
2023-03-06T05:29:47.295Z,77.69
2023-03-06T05:32:13.903Z,78.22
2023-03-06T05:34:40.551Z,78.71
2023-03-06T05:37:07.083Z,78.47
2023-03-06T05:39:33.575Z,78.38
2023-03-06T05:42:00.126Z,77.02
2023-03-06T05:44:34.364Z,77.25
2023-03-06T05:47:01.354Z,78.52
2023-03-06T05:49:32.626Z,78.90
2023-03-06T05:51:59.514Z,78.89
2023-03-06T05:54:26.011Z,77.73
2023-03-06T05:56:52.575Z,77.25
2023-03-06T05:59:19.062Z,77.21
2023-03-06T06:01:45.544Z,76.19
2023-03-06T06:04:12.081Z,76.28
2023-03-06T06:06:38.537Z,77.25
2023-03-06T06:09:05.073Z,77.30
2023-03-06T06:11:31.726Z,76.90
2023-03-06T06:14:03.379Z,78.41
2023-03-06T06:16:30.357Z,77.50
2023-03-06T06:18:57.560Z,76.95
2023-03-06T06:21:24.050Z,75.90
2023-03-06T06:23:50.624Z,75.50
2023-03-06T06:26:17.161Z,75.59
2023-03-06T06:28:44.766Z,75.98
2023-03-06T06:31:12.129Z,75.42
2023-03-06T06:33:40.356Z,75.27
2023-03-06T06:36:15.894Z,74.85
2023-03-06T06:38:42.859Z,74.57
2023-03-06T06:41:38.993Z,74.09
2023-03-06T06:43:58.695Z,74.14
2023-03-06T06:47:17.895Z,75.68
2023-03-06T06:49:14.401Z,75.31
2023-03-06T06:51:41.051Z,75.02
2023-03-06T06:54:07.948Z,74.94
2023-03-06T06:56:34.721Z,74.87
2023-03-06T06:59:15.310Z,73.68
2023-03-06T07:01:42.986Z,73.77
2023-03-06T07:04:12.571Z,73.42
2023-03-06T07:06:39.098Z,73.70
2023-03-06T07:09:05.601Z,73.09
2023-03-06T07:11:32.347Z,71.23
2023-03-06T07:13:58.886Z,70.94
2023-03-06T07:16:25.420Z,71.41
2023-03-06T07:18:51.925Z,70.05
2023-03-06T07:21:18.460Z,68.81
2023-03-06T07:23:45.055Z,68.74
2023-03-06T07:26:11.917Z,68.76
2023-03-06T07:28:52.079Z,67.58
2023-03-06T07:31:24.494Z,66.71
2023-03-06T07:33:54.658Z,66.60
2023-03-06T07:36:22.399Z,66.65
2023-03-06T07:38:49.120Z,66.07
2023-03-06T07:41:16.037Z,65.94
2023-03-06T07:43:43.966Z,66.19
2023-03-06T07:46:10.541Z,65.14
2023-03-06T07:48:37.654Z,65.91
2023-03-06T07:51:10.611Z,65.42
2023-03-06T07:53:37.149Z,65.12
2023-03-06T07:56:05.026Z,65.08
2023-03-06T07:58:33.343Z,65.55
2023-03-06T08:01:07.126Z,65.01
2023-03-06T08:03:34.021Z,64.11
2023-03-06T08:06:10.515Z,64.41
2023-03-06T08:08:38.471Z,63.94
2023-03-06T08:11:06.335Z,64.12
2023-03-06T08:13:32.911Z,63.75
2023-03-06T08:15:59.439Z,63.62
2023-03-06T08:18:27.076Z,63.21
2023-03-06T08:21:11.071Z,64.08
2023-03-06T08:23:38.137Z,64.04
2023-03-06T08:26:07.022Z,64.29
2023-03-06T08:28:34.045Z,63.32
2023-03-06T08:31:27.926Z,62.83
2023-03-06T08:33:55.565Z,61.82
2023-03-06T08:36:22.070Z,61.77
2023-03-06T08:38:48.612Z,61.08
2023-03-06T08:41:15.143Z,61.13
2023-03-06T08:43:42.001Z,60.60
2023-03-06T08:46:10.445Z,59.53
2023-03-06T08:48:37.326Z,59.59
2023-03-06T08:51:03.988Z,59.06
2023-03-06T08:53:42.675Z,59.04
2023-03-06T08:56:26.119Z,57.92
2023-03-06T08:58:53.235Z,57.66
2023-03-06T09:01:25.983Z,56.78
2023-03-06T09:03:57.714Z,56.41
2023-03-06T09:06:24.906Z,56.88
2023-03-06T09:08:52.275Z,57.53
2023-03-06T09:11:20.736Z,57.72
2023-03-06T09:13:47.232Z,56.86
2023-03-06T09:16:13.772Z,56.43
2023-03-06T09:18:40.370Z,56.30
2023-03-06T09:21:08.107Z,56.81
2023-03-06T09:23:35.374Z,56.35
2023-03-06T09:26:02.029Z,56.19
2023-03-06T09:28:29.251Z,55.61
2023-03-06T09:30:56.076Z,56.04
2023-03-06T09:33:22.629Z,56.58
2023-03-06T09:35:53.217Z,55.95
2023-03-06T09:38:21.567Z,55.31
2023-03-06T09:40:57.343Z,56.10
2023-03-06T09:43:34.433Z,55.88
2023-03-06T09:46:06.111Z,55.99
2023-03-06T09:49:12.354Z,55.79
2023-03-06T09:52:16.372Z,55.19
2023-03-06T09:54:45.563Z,56.05
2023-03-06T09:57:33.281Z,54.52
2023-03-06T10:00:04.666Z,54.95
2023-03-06T10:02:51.374Z,55.70
2023-03-06T10:05:27.154Z,55.07
2023-03-06T10:08:04.390Z,55.51
2023-03-06T10:11:04.245Z,55.40
2023-03-06T10:13:51.967Z,55.50
2023-03-06T10:16:18.629Z,55.49
2023-03-06T10:18:45.214Z,55.79
2023-03-06T10:21:28.618Z,55.06
2023-03-06T10:24:17.358Z,55.81
2023-03-06T10:26:52.879Z,56.44
2023-03-06T10:30:01.729Z,58.66
2023-03-06T10:32:51.393Z,59.96
2023-03-06T10:35:20.996Z,59.22
2023-03-06T10:37:48.652Z,59.52
2023-03-06T10:40:21.623Z,58.83
2023-03-06T10:42:49.527Z,59.14
2023-03-06T10:45:19.837Z,57.63
2023-03-06T10:47:46.595Z,57.88
2023-03-06T10:50:23.661Z,56.93
2023-03-06T10:53:02.138Z,54.76
2023-03-06T10:55:31.250Z,56.58
2023-03-06T10:57:57.928Z,53.63
2023-03-06T11:00:24.975Z,53.63
2023-03-06T11:03:21.640Z,55.82
2023-03-06T11:06:02.106Z,54.47
2023-03-06T11:08:29.624Z,54.52
2023-03-06T11:11:01.094Z,56.30
2023-03-06T11:13:30.501Z,56.13
2023-03-06T11:16:05.112Z,55.69
2023-03-06T11:18:40.891Z,56.51
2023-03-06T11:21:31.281Z,56.05
2023-03-06T11:24:18.494Z,54.02
2023-03-06T11:26:54.841Z,54.42
2023-03-06T11:29:24.053Z,53.14
2023-03-06T11:31:56.982Z,53.22
2023-03-06T11:34:38.744Z,53.87
2023-03-06T11:37:23.701Z,52.42
2023-03-06T11:40:00.887Z,53.23
2023-03-06T11:42:31.807Z,51.33
2023-03-06T11:45:07.205Z,52.08
2023-03-06T11:47:37.673Z,52.48
2023-03-06T11:50:34.624Z,50.29
2023-03-06T11:53:08.031Z,50.98
2023-03-06T11:55:45.635Z,51.13
2023-03-06T11:58:39.959Z,50.00
2023-03-06T12:01:10.477Z,51.24
2023-03-06T12:04:07.462Z,51.00
2023-03-06T12:06:36.952Z,52.19
2023-03-06T12:09:12.220Z,51.35
2023-03-06T12:11:48.196Z,50.28
2023-03-06T12:14:49.997Z,50.73
2023-03-06T12:17:55.970Z,50.39
2023-03-06T12:20:43.614Z,51.50
2023-03-06T12:23:39.242Z,50.64
2023-03-06T12:26:25.723Z,48.82
2023-03-06T12:29:10.497Z,49.57
2023-03-06T12:32:05.142Z,49.41
2023-03-06T12:34:40.999Z,49.02
2023-03-06T12:37:16.902Z,49.13
2023-03-06T12:40:09.778Z,49.94
2023-03-06T12:43:04.250Z,49.09
2023-03-06T12:45:34.609Z,49.34
2023-03-06T12:48:01.389Z,49.43
2023-03-06T12:50:35.543Z,48.33
2023-03-06T12:53:04.757Z,48.96
2023-03-06T12:55:39.801Z,49.67
2023-03-06T12:58:29.562Z,48.17
2023-03-06T13:01:16.044Z,46.09
2023-03-06T13:04:03.723Z,47.56
2023-03-06T13:06:39.123Z,47.40
2023-03-06T13:09:19.263Z,46.77
2023-03-06T13:12:13.772Z,46.27
2023-03-06T13:14:48.772Z,45.23
2023-03-06T13:17:20.419Z,45.24
2023-03-06T13:19:48.082Z,44.93
2023-03-06T13:22:26.859Z,45.92
2023-03-06T13:25:21.339Z,45.03
2023-03-06T13:27:53.583Z,44.91
2023-03-06T13:30:20.089Z,45.26
2023-03-06T13:32:47.073Z,43.89
2023-03-06T13:35:39.681Z,44.35
2023-03-06T13:38:40.979Z,44.33
2023-03-06T13:41:22.710Z,45.47
2023-03-06T13:43:51.494Z,45.15
2023-03-06T13:46:23.834Z,46.42
2023-03-06T13:49:15.174Z,45.58
2023-03-06T13:52:10.881Z,45.21
2023-03-06T13:54:52.651Z,45.31
2023-03-06T13:57:56.875Z,44.26
2023-03-06T14:00:57.489Z,43.90
2023-03-06T14:03:38.565Z,43.64
2023-03-06T14:06:34.303Z,42.47
2023-03-06T14:09:02.368Z,42.03
2023-03-06T14:11:29.159Z,42.68
2023-03-06T14:13:56.849Z,42.58
2023-03-06T14:16:29.085Z,41.47
2023-03-06T14:18:57.688Z,42.00
2023-03-06T14:21:32.847Z,42.06
2023-03-06T14:24:04.024Z,42.73
2023-03-06T14:26:33.685Z,42.17
2023-03-06T14:29:01.869Z,41.62
2023-03-06T14:31:34.794Z,40.63
2023-03-06T14:34:04.114Z,41.16
2023-03-06T14:36:45.306Z,39.88
2023-03-06T14:39:41.221Z,40.26
2023-03-06T14:42:20.846Z,41.01
2023-03-06T14:44:49.000Z,43.17
2023-03-06T14:47:30.386Z,40.75
2023-03-06T14:50:25.783Z,40.84
2023-03-06T14:53:18.494Z,40.44
2023-03-06T14:55:50.147Z,40.06
2023-03-06T14:58:20.593Z,42.47
2023-03-06T15:00:50.343Z,41.92
2023-03-06T15:03:43.822Z,41.20
2023-03-06T15:06:23.140Z,41.31
2023-03-06T15:08:58.670Z,40.86
2023-03-06T15:11:26.248Z,40.66
2023-03-06T15:14:01.017Z,41.83
2023-03-06T15:16:30.012Z,41.21
2023-03-06T15:18:59.749Z,40.61
2023-03-06T15:21:26.928Z,41.29
2023-03-06T15:23:55.948Z,41.04
2023-03-06T15:26:38.712Z,40.91
2023-03-06T15:29:11.133Z,40.61
2023-03-06T15:31:45.552Z,41.86
2023-03-06T15:34:18.291Z,40.81
2023-03-06T15:36:50.612Z,42.52
2023-03-06T15:39:38.054Z,42.78
2023-03-06T15:42:22.347Z,42.81
2023-03-06T15:44:57.920Z,41.27
2023-03-06T15:47:24.618Z,40.80
2023-03-06T15:49:54.367Z,40.19
2023-03-06T15:52:21.807Z,40.06
2023-03-06T15:54:48.844Z,41.05
2023-03-06T15:57:27.133Z,40.22
2023-03-06T15:59:55.613Z,41.20
2023-03-06T16:02:23.682Z,40.24
2023-03-06T16:04:50.938Z,39.98
2023-03-06T16:07:18.833Z,39.76
2023-03-06T16:09:46.064Z,40.21
2023-03-06T16:12:17.425Z,39.40
2023-03-06T16:14:45.382Z,38.93
2023-03-06T16:17:12.257Z,39.20
2023-03-06T16:19:39.096Z,38.69
2023-03-06T16:22:05.630Z,37.95
2023-03-06T16:24:32.144Z,38.76
2023-03-06T16:27:01.210Z,39.07
2023-03-06T16:29:28.939Z,40.11
2023-03-06T16:31:57.296Z,40.29
2023-03-06T16:34:24.316Z,40.09
2023-03-06T16:36:51.219Z,39.14
2023-03-06T16:39:20.106Z,40.20
2023-03-06T16:41:46.840Z,39.94
2023-03-06T16:44:13.466Z,40.79
2023-03-06T16:46:42.465Z,40.85
2023-03-06T16:49:15.398Z,40.99
2023-03-06T16:51:41.895Z,40.16
2023-03-06T16:54:08.371Z,40.60
2023-03-06T16:56:34.848Z,40.43
2023-03-06T16:59:01.424Z,40.34
2023-03-06T17:01:28.007Z,41.25
2023-03-06T17:03:54.699Z,41.05
2023-03-06T17:06:22.460Z,40.80
2023-03-06T17:08:50.348Z,41.04
2023-03-06T17:11:18.420Z,41.07
2023-03-06T17:13:47.430Z,41.40
2023-03-06T17:16:14.489Z,42.44
2023-03-06T17:18:42.311Z,42.69
2023-03-06T17:21:09.328Z,42.71
2023-03-06T17:23:36.279Z,43.04
2023-03-06T17:26:07.162Z,43.64
2023-03-06T17:28:34.795Z,43.30
2023-03-06T17:31:02.874Z,43.54
2023-03-06T17:33:29.523Z,44.17
2023-03-06T17:36:00.555Z,43.65
2023-03-06T17:38:27.721Z,44.10
2023-03-06T17:40:54.323Z,43.73
2023-03-06T17:43:21.155Z,43.89
2023-03-06T17:45:47.690Z,44.39
2023-03-06T17:48:14.354Z,43.50
2023-03-06T17:50:40.901Z,44.17
2023-03-06T17:53:07.406Z,47.00
2023-03-06T17:55:33.982Z,46.85
2023-03-06T17:58:00.547Z,47.29
2023-03-06T18:00:27.115Z,48.41
2023-03-06T18:02:53.685Z,48.57
2023-03-06T18:05:20.844Z,49.24
2023-03-06T18:07:48.715Z,49.15
2023-03-06T18:10:17.784Z,50.19
2023-03-06T18:12:45.506Z,50.51
2023-03-06T18:15:12.372Z,50.33
2023-03-06T18:17:39.089Z,49.76
2023-03-06T18:20:06.269Z,49.55
2023-03-06T18:22:32.914Z,51.10
2023-03-06T18:24:59.518Z,51.05
2023-03-06T18:27:26.084Z,50.37
2023-03-06T18:29:52.600Z,50.07
2023-03-06T18:32:19.300Z,49.03
2023-03-06T18:34:45.806Z,51.07
2023-03-06T18:37:12.675Z,50.91
2023-03-06T18:39:39.151Z,49.86
2023-03-06T18:42:05.827Z,47.80
2023-03-06T18:44:32.353Z,48.77
2023-03-06T18:46:58.991Z,49.17
2023-03-06T18:49:25.509Z,49.72
2023-03-06T18:51:52.157Z,51.05
2023-03-06T18:54:18.836Z,51.73
2023-03-06T18:56:45.393Z,52.12
2023-03-06T18:59:18.913Z,51.88
2023-03-06T19:01:46.637Z,52.25
2023-03-06T19:04:15.713Z,51.94
2023-03-06T19:06:42.307Z,52.34
2023-03-06T19:09:08.807Z,51.39
2023-03-06T19:11:35.302Z,51.76
2023-03-06T19:14:01.828Z,51.12
2023-03-06T19:16:29.503Z,51.09
2023-03-06T19:18:56.661Z,51.11
2023-03-06T19:21:25.326Z,51.27
2023-03-06T19:23:54.244Z,50.58
2023-03-06T19:26:23.284Z,50.84
2023-03-06T19:28:52.609Z,50.57
2023-03-06T19:31:23.922Z,50.73
2023-03-06T19:33:51.249Z,49.76
2023-03-06T19:36:21.136Z,50.06
2023-03-06T19:38:47.614Z,50.33
2023-03-06T19:41:15.251Z,50.19
2023-03-06T19:43:43.063Z,50.89
2023-03-06T19:46:13.738Z,51.53
2023-03-06T19:48:41.406Z,51.48
2023-03-06T19:51:08.133Z,52.36
2023-03-06T19:53:34.785Z,52.07
2023-03-06T19:56:06.355Z,52.76
2023-03-06T19:58:33.172Z,53.27
2023-03-06T20:01:11.039Z,52.93
2023-03-06T20:03:40.107Z,52.57
2023-03-06T20:06:06.855Z,52.09
2023-03-06T20:08:33.407Z,52.83
2023-03-06T20:10:59.951Z,52.48
2023-03-06T20:13:26.538Z,52.95
2023-03-06T20:15:53.061Z,53.40
2023-03-06T20:18:19.583Z,53.01
2023-03-06T20:20:46.173Z,53.31
2023-03-06T20:23:14.584Z,52.29
2023-03-06T20:25:42.824Z,53.00
2023-03-06T20:28:09.331Z,53.00
2023-03-06T20:30:38.468Z,52.96
2023-03-06T20:33:05.102Z,53.44
2023-03-06T20:35:31.752Z,53.21
2023-03-06T20:37:58.373Z,53.75
2023-03-06T20:40:26.102Z,53.68
2023-03-06T20:42:52.774Z,54.35
2023-03-06T20:45:19.562Z,54.52
2023-03-06T20:47:46.074Z,54.69
2023-03-06T20:50:14.784Z,54.27
2023-03-06T20:52:41.700Z,55.04
2023-03-06T20:55:09.932Z,54.43
2023-03-06T20:57:39.516Z,54.29
2023-03-06T21:00:06.808Z,54.20
2023-03-06T21:02:33.327Z,54.36
2023-03-06T21:05:00.385Z,53.94
2023-03-06T21:07:26.981Z,54.39
2023-03-06T21:09:53.547Z,53.33
2023-03-06T21:12:20.116Z,53.21
2023-03-06T21:14:46.771Z,53.36
2023-03-06T21:17:15.573Z,53.90
2023-03-06T21:19:42.199Z,53.35
2023-03-06T21:22:08.746Z,53.21
2023-03-06T21:24:35.647Z,53.75
2023-03-06T21:27:04.676Z,52.58
2023-03-06T21:29:34.775Z,52.70
2023-03-06T21:32:01.369Z,52.38
2023-03-06T21:34:28.012Z,53.61
2023-03-06T21:36:54.646Z,52.05
2023-03-06T21:39:21.249Z,53.80
2023-03-06T21:41:47.760Z,53.41
2023-03-06T21:44:14.355Z,53.01
2023-03-06T21:46:40.849Z,52.18
2023-03-06T21:49:07.386Z,52.29
2023-03-06T21:51:34.112Z,52.42
2023-03-06T21:54:00.749Z,52.45
2023-03-06T21:56:27.650Z,52.29
2023-03-06T21:58:56.375Z,52.70
2023-03-06T22:01:25.234Z,52.16
2023-03-06T22:03:52.156Z,52.72
2023-03-06T22:06:23.680Z,52.04
2023-03-06T22:08:52.900Z,52.15
2023-03-06T22:11:21.336Z,53.32
2023-03-06T22:13:48.864Z,53.11
2023-03-06T22:16:15.755Z,53.59
2023-03-06T22:18:46.736Z,53.49
2023-03-06T22:21:15.429Z,53.89
2023-03-06T22:23:42.946Z,54.22
2023-03-06T22:26:11.726Z,54.49
2023-03-06T22:28:38.865Z,54.48
2023-03-06T22:31:13.924Z,54.76
2023-03-06T22:33:41.251Z,54.37
2023-03-06T22:36:12.510Z,53.73
2023-03-06T22:38:41.029Z,54.57
2023-03-06T22:41:08.900Z,53.99
2023-03-06T22:43:36.150Z,54.20
2023-03-06T22:46:09.347Z,54.16
2023-03-06T22:48:35.959Z,54.04
2023-03-06T22:51:04.554Z,54.51
2023-03-06T22:53:31.629Z,54.41
2023-03-06T22:55:59.378Z,54.50
2023-03-06T22:58:26.786Z,55.29
2023-03-06T23:00:53.591Z,55.33
2023-03-06T23:03:20.486Z,55.62
2023-03-06T23:05:46.979Z,56.11
2023-03-06T23:08:13.516Z,56.35
2023-03-06T23:10:40.061Z,55.61
2023-03-06T23:13:06.640Z,55.72
2023-03-06T23:15:35.627Z,54.83
2023-03-06T23:18:02.366Z,54.62
2023-03-06T23:20:29.253Z,55.23
2023-03-06T23:22:56.058Z,55.00
2023-03-06T23:25:22.591Z,54.45
2023-03-06T23:27:49.088Z,54.31
2023-03-06T23:30:15.732Z,53.45
2023-03-06T23:32:44.832Z,53.58
2023-03-06T23:35:12.256Z,52.99
2023-03-06T23:37:38.738Z,53.62
2023-03-06T23:40:05.788Z,53.53
2023-03-06T23:42:32.574Z,54.57
2023-03-06T23:44:59.030Z,53.51
2023-03-06T23:47:25.827Z,53.25
2023-03-06T23:49:52.405Z,52.37
2023-03-06T23:52:18.915Z,52.30
2023-03-06T23:54:48.350Z,52.78
2023-03-06T23:57:16.623Z,53.18
2023-03-06T23:59:43.735Z,52.97
